sensor_id;sensor_type;location;lat;lon;timestamp;pressure;altitude;pressure_sealevel;temperature
49557;BMP280;35462;45.048;7.666;2023-05-07T00:10:29;98841.28;;;22.57
49557;BMP280;35462;45.048;7.666;2023-05-07T00:25:33;98848.16;;;22.52
49557;BMP280;35462;45.048;7.666;2023-05-07T00:40:37;98835.63;;;22.55
49557;BMP280;35462;45.048;7.666;2023-05-07T00:55:41;98820.63;;;22.48
49557;BMP280;35462;45.048;7.666;2023-05-07T01:10:46;98824.47;;;22.37
49557;BMP280;35462;45.048;7.666;2023-05-07T01:25:53;98825.16;;;22.26
49557;BMP280;35462;45.048;7.666;2023-05-07T01:40:58;98830.47;;;22.15
49557;BMP280;35462;45.048;7.666;2023-05-07T01:56:03;98836.06;;;22.06
49557;BMP280;35462;45.048;7.666;2023-05-07T02:11:07;98854.94;;;22.06
49557;BMP280;35462;45.048;7.666;2023-05-07T02:26:12;98865.00;;;22.06
49557;BMP280;35462;45.048;7.666;2023-05-07T02:41:16;98892.19;;;22.02
49557;BMP280;35462;45.048;7.666;2023-05-07T02:56:20;98901.00;;;21.97
49557;BMP280;35462;45.048;7.666;2023-05-07T03:11:24;98917.41;;;21.99
49557;BMP280;35462;45.048;7.666;2023-05-07T03:26:28;98900.47;;;21.93
49557;BMP280;35462;45.048;7.666;2023-05-07T03:41:33;98910.97;;;21.91
49557;BMP280;35462;45.048;7.666;2023-05-07T03:56:38;98927.06;;;21.81
49557;BMP280;35462;45.048;7.666;2023-05-07T04:11:42;98938.63;;;21.61
49557;BMP280;35462;45.048;7.666;2023-05-07T04:26:48;98960.34;;;21.52
49557;BMP280;35462;45.048;7.666;2023-05-07T04:41:52;98974.81;;;21.35
49557;BMP280;35462;45.048;7.666;2023-05-07T04:56:57;98999.19;;;21.26
49557;BMP280;35462;45.048;7.666;2023-05-07T05:12:01;99014.25;;;21.18
49557;BMP280;35462;45.048;7.666;2023-05-07T05:27:06;99008.44;;;21.19
49557;BMP280;35462;45.048;7.666;2023-05-07T05:42:10;99010.56;;;21.15
49557;BMP280;35462;45.048;7.666;2023-05-07T05:57:14;98999.25;;;21.12
49557;BMP280;35462;45.048;7.666;2023-05-07T06:12:20;99014.09;;;21.07
49557;BMP280;35462;45.048;7.666;2023-05-07T06:27:25;99032.72;;;21.05
49557;BMP280;35462;45.048;7.666;2023-05-07T06:42:30;99032.00;;;21.10
49557;BMP280;35462;45.048;7.666;2023-05-07T06:57:38;99044.03;;;21.09
49557;BMP280;35462;45.048;7.666;2023-05-07T07:12:42;99059.13;;;21.21
49557;BMP280;35462;45.048;7.666;2023-05-07T07:27:47;99058.28;;;21.29
49557;BMP280;35462;45.048;7.666;2023-05-07T07:42:53;99048.59;;;21.37
49557;BMP280;35462;45.048;7.666;2023-05-07T07:57:57;99036.69;;;21.64
49557;BMP280;35462;45.048;7.666;2023-05-07T08:13:02;99037.19;;;21.87
49557;BMP280;35462;45.048;7.666;2023-05-07T08:28:08;99041.38;;;22.34
49557;BMP280;35462;45.048;7.666;2023-05-07T08:43:14;99031.31;;;22.96
49557;BMP280;35462;45.048;7.666;2023-05-07T08:58:19;99031.09;;;23.46
49557;BMP280;35462;45.048;7.666;2023-05-07T09:13:23;99003.41;;;23.68
49557;BMP280;35462;45.048;7.666;2023-05-07T09:28:28;99001.19;;;23.66
49557;BMP280;35462;45.048;7.666;2023-05-07T09:43:35;98999.69;;;23.54
49557;BMP280;35462;45.048;7.666;2023-05-07T09:58:41;98981.22;;;23.53
49557;BMP280;35462;45.048;7.666;2023-05-07T10:13:46;98954.25;;;23.91
49557;BMP280;35462;45.048;7.666;2023-05-07T10:28:54;98936.56;;;24.06
49557;BMP280;35462;45.048;7.666;2023-05-07T10:43:59;98934.34;;;24.27
49557;BMP280;35462;45.048;7.666;2023-05-07T11:29:46;98887.00;;;24.60
49557;BMP280;35462;45.048;7.666;2023-05-07T11:44:50;98889.66;;;24.66
49557;BMP280;35462;45.048;7.666;2023-05-07T11:59:56;98884.69;;;24.86
49557;BMP280;35462;45.048;7.666;2023-05-07T12:15:01;98884.84;;;24.99
49557;BMP280;35462;45.048;7.666;2023-05-07T12:30:05;98881.56;;;25.17
49557;BMP280;35462;45.048;7.666;2023-05-07T12:45:11;98864.50;;;25.22
49557;BMP280;35462;45.048;7.666;2023-05-07T13:00:15;98845.25;;;25.31
49557;BMP280;35462;45.048;7.666;2023-05-07T13:15:19;98827.25;;;25.33
49557;BMP280;35462;45.048;7.666;2023-05-07T13:30:24;98812.19;;;25.32
49557;BMP280;35462;45.048;7.666;2023-05-07T13:45:28;98800.16;;;25.28
49557;BMP280;35462;45.048;7.666;2023-05-07T14:00:33;98795.03;;;25.19
49557;BMP280;35462;45.048;7.666;2023-05-07T14:15:37;98802.22;;;25.11
49557;BMP280;35462;45.048;7.666;2023-05-07T14:30:41;98818.41;;;24.87
49557;BMP280;35462;45.048;7.666;2023-05-07T14:45:45;98819.94;;;24.77
49557;BMP280;35462;45.048;7.666;2023-05-07T15:00:49;98828.38;;;24.57
49557;BMP280;35462;45.048;7.666;2023-05-07T15:15:53;98812.50;;;24.16
49557;BMP280;35462;45.048;7.666;2023-05-07T15:30:57;98816.22;;;23.91
49557;BMP280;35462;45.048;7.666;2023-05-07T15:46:01;98834.69;;;23.71
49557;BMP280;35462;45.048;7.666;2023-05-07T16:01:05;98846.28;;;23.71
49557;BMP280;35462;45.048;7.666;2023-05-07T16:16:08;98854.63;;;23.84
49557;BMP280;35462;45.048;7.666;2023-05-07T16:31:13;98851.19;;;23.89
49557;BMP280;35462;45.048;7.666;2023-05-07T16:46:16;98844.06;;;23.86
49557;BMP280;35462;45.048;7.666;2023-05-07T17:01:20;98848.47;;;23.83
49557;BMP280;35462;45.048;7.666;2023-05-07T17:16:24;98851.41;;;23.85
49557;BMP280;35462;45.048;7.666;2023-05-07T17:31:28;98840.34;;;23.78
49557;BMP280;35462;45.048;7.666;2023-05-07T17:46:32;98832.28;;;23.62
49557;BMP280;35462;45.048;7.666;2023-05-07T18:01:36;98837.66;;;23.51
49557;BMP280;35462;45.048;7.666;2023-05-07T18:16:40;98839.34;;;23.48
49557;BMP280;35462;45.048;7.666;2023-05-07T18:31:44;98846.72;;;23.31
49557;BMP280;35462;45.048;7.666;2023-05-07T18:46:48;98855.78;;;23.12
49557;BMP280;35462;45.048;7.666;2023-05-07T19:01:52;98855.72;;;23.01
49557;BMP280;35462;45.048;7.666;2023-05-07T19:16:56;98862.78;;;22.88
49557;BMP280;35462;45.048;7.666;2023-05-07T19:32:01;98883.03;;;22.61
49557;BMP280;35462;45.048;7.666;2023-05-07T19:47:05;98889.63;;;22.55
49557;BMP280;35462;45.048;7.666;2023-05-07T20:02:09;98895.00;;;22.55
49557;BMP280;35462;45.048;7.666;2023-05-07T20:17:14;98905.31;;;22.51
49557;BMP280;35462;45.048;7.666;2023-05-07T20:32:18;98913.31;;;22.40
49557;BMP280;35462;45.048;7.666;2023-05-07T20:47:22;98908.13;;;22.31
49557;BMP280;35462;45.048;7.666;2023-05-07T21:02:26;98908.78;;;22.21
49557;BMP280;35462;45.048;7.666;2023-05-07T21:17:30;98914.31;;;22.06
49557;BMP280;35462;45.048;7.666;2023-05-07T21:32:35;98929.69;;;22.00
49557;BMP280;35462;45.048;7.666;2023-05-07T21:47:39;98945.63;;;21.98
49557;BMP280;35462;45.048;7.666;2023-05-07T22:02:43;98944.56;;;21.90
49557;BMP280;35462;45.048;7.666;2023-05-07T22:17:47;98948.59;;;21.75
49557;BMP280;35462;45.048;7.666;2023-05-07T22:32:51;98946.22;;;21.63
49557;BMP280;35462;45.048;7.666;2023-05-07T22:47:55;98941.47;;;21.52
49557;BMP280;35462;45.048;7.666;2023-05-07T23:02:59;98958.09;;;21.51
49557;BMP280;35462;45.048;7.666;2023-05-07T23:18:03;98967.13;;;21.48
49557;BMP280;35462;45.048;7.666;2023-05-07T23:33:06;98968.25;;;21.41
49557;BMP280;35462;45.048;7.666;2023-05-07T23:48:10;98973.50;;;21.30
